sensor_id;sensor_type;location;lat;lon;timestamp;pressure;altitude;pressure_sealevel;temperature;humidity
49947;BME280;35839;48.662;13.300;2023-12-29T06:37:57;97467.94;;;6.56;100.00
49947;BME280;35839;48.662;13.300;2023-12-29T06:40:22;97471.81;;;6.62;100.00
49947;BME280;35839;48.662;13.300;2023-12-29T06:42:48;97473.34;;;6.64;100.00
49947;BME280;35839;48.662;13.300;2023-12-29T06:45:13;97479.19;;;6.89;100.00
49947;BME280;35839;48.662;13.300;2023-12-29T06:47:38;97478.38;;;6.88;100.00
49947;BME280;35839;48.662;13.300;2023-12-29T06:50:04;97479.94;;;6.80;100.00
49947;BME280;35839;48.662;13.300;2023-12-29T06:52:31;97489.16;;;6.84;100.00
49947;BME280;35839;48.662;13.300;2023-12-29T06:55:02;97497.66;;;6.86;100.00
49947;BME280;35839;48.662;13.300;2023-12-29T06:57:27;97495.00;;;6.76;100.00
49947;BME280;35839;48.662;13.300;2023-12-29T06:59:52;97492.66;;;6.94;100.00
49947;BME280;35839;48.662;13.300;2023-12-29T07:02:18;97486.03;;;6.90;100.00
49947;BME280;35839;48.662;13.300;2023-12-29T07:04:43;97499.16;;;6.56;100.00
49947;BME280;35839;48.662;13.300;2023-12-29T07:07:08;97489.47;;;6.58;100.00
49947;BME280;35839;48.662;13.300;2023-12-29T07:09:33;97481.66;;;6.58;100.00
49947;BME280;35839;48.662;13.300;2023-12-29T07:11:59;97487.44;;;6.94;100.00
49947;BME280;35839;48.662;13.300;2023-12-29T07:14:24;97487.16;;;7.08;100.00
49947;BME280;35839;48.662;13.300;2023-12-29T07:16:49;97488.66;;;7.11;100.00
49947;BME280;35839;48.662;13.300;2023-12-29T07:19:14;97500.09;;;6.99;100.00
49947;BME280;35839;48.662;13.300;2023-12-29T07:21:40;97492.81;;;7.13;100.00
49947;BME280;35839;48.662;13.300;2023-12-29T07:24:05;97499.31;;;6.87;100.00
49947;BME280;35839;48.662;13.300;2023-12-29T07:26:32;97508.28;;;6.94;100.00
49947;BME280;35839;48.662;13.300;2023-12-29T07:28:59;97484.28;;;6.90;100.00
49947;BME280;35839;48.662;13.300;2023-12-29T07:31:24;97484.44;;;6.78;100.00
49947;BME280;35839;48.662;13.300;2023-12-29T07:33:51;97489.41;;;6.81;100.00
49947;BME280;35839;48.662;13.300;2023-12-29T07:36:16;97501.25;;;6.73;100.00
49947;BME280;35839;48.662;13.300;2023-12-29T07:38:41;97497.22;;;6.81;100.00
49947;BME280;35839;48.662;13.300;2023-12-29T07:41:08;97499.66;;;6.93;100.00
49947;BME280;35839;48.662;13.300;2023-12-29T07:43:34;97499.59;;;7.05;100.00
49947;BME280;35839;48.662;13.300;2023-12-29T07:46:01;97502.97;;;7.16;100.00
49947;BME280;35839;48.662;13.300;2023-12-29T07:48:26;97501.84;;;7.30;100.00
49947;BME280;35839;48.662;13.300;2023-12-29T07:50:51;97501.69;;;7.32;100.00
49947;BME280;35839;48.662;13.300;2023-12-29T07:53:16;97507.88;;;7.31;100.00
49947;BME280;35839;48.662;13.300;2023-12-29T07:55:43;97502.56;;;7.32;100.00
49947;BME280;35839;48.662;13.300;2023-12-29T07:58:09;97497.28;;;7.23;100.00
49947;BME280;35839;48.662;13.300;2023-12-29T08:00:35;97500.13;;;7.41;100.00
49947;BME280;35839;48.662;13.300;2023-12-29T08:03:01;97506.28;;;7.18;100.00
49947;BME280;35839;48.662;13.300;2023-12-29T08:05:26;97507.38;;;7.37;100.00
49947;BME280;35839;48.662;13.300;2023-12-29T08:07:52;97490.91;;;7.15;100.00
49947;BME280;35839;48.662;13.300;2023-12-29T08:10:17;97495.13;;;7.28;100.00
49947;BME280;35839;48.662;13.300;2023-12-29T08:12:42;97500.44;;;7.26;100.00
49947;BME280;35839;48.662;13.300;2023-12-29T08:15:08;97497.03;;;7.26;100.00
49947;BME280;35839;48.662;13.300;2023-12-29T08:17:33;97497.09;;;7.35;100.00
49947;BME280;35839;48.662;13.300;2023-12-29T08:19:59;97496.44;;;7.43;100.00
49947;BME280;35839;48.662;13.300;2023-12-29T08:22:24;97502.78;;;7.50;100.00
49947;BME280;35839;48.662;13.300;2023-12-29T08:24:50;97500.94;;;7.62;100.00
49947;BME280;35839;48.662;13.300;2023-12-29T08:27:22;97497.81;;;7.68;100.00
49947;BME280;35839;48.662;13.300;2023-12-29T08:29:47;97497.16;;;7.76;100.00
49947;BME280;35839;48.662;13.300;2023-12-29T08:32:13;97509.25;;;7.77;100.00
49947;BME280;35839;48.662;13.300;2023-12-29T08:34:38;97506.63;;;7.67;100.00
49947;BME280;35839;48.662;13.300;2023-12-29T08:37:03;97511.94;;;7.66;100.00
49947;BME280;35839;48.662;13.300;2023-12-29T08:39:29;97514.16;;;7.70;100.00
49947;BME280;35839;48.662;13.300;2023-12-29T08:41:54;97524.19;;;7.75;100.00
49947;BME280;35839;48.662;13.300;2023-12-29T08:44:20;97520.94;;;7.82;100.00
49947;BME280;35839;48.662;13.300;2023-12-29T08:46:45;97518.72;;;7.78;100.00
49947;BME280;35839;48.662;13.300;2023-12-29T08:49:10;97519.84;;;7.85;100.00
49947;BME280;35839;48.662;13.300;2023-12-29T08:51:36;97516.94;;;7.78;100.00
49947;BME280;35839;48.662;13.300;2023-12-29T08:54:01;97528.34;;;7.56;100.00
49947;BME280;35839;48.662;13.300;2023-12-29T08:56:27;97524.16;;;7.44;100.00
49947;BME280;35839;48.662;13.300;2023-12-29T08:58:54;97531.75;;;7.78;100.00
49947;BME280;35839;48.662;13.300;2023-12-29T09:01:19;97527.28;;;7.90;100.00
49947;BME280;35839;48.662;13.300;2023-12-29T09:03:45;97531.50;;;8.02;100.00
49947;BME280;35839;48.662;13.300;2023-12-29T09:06:10;97530.13;;;8.08;100.00
49947;BME280;35839;48.662;13.300;2023-12-29T09:08:36;97530.53;;;8.03;100.00
49947;BME280;35839;48.662;13.300;2023-12-29T09:11:01;97528.56;;;7.95;100.00
49947;BME280;35839;48.662;13.300;2023-12-29T09:13:27;97529.50;;;7.94;100.00
49947;BME280;35839;48.662;13.300;2023-12-29T09:15:54;97534.41;;;7.88;100.00
49947;BME280;35839;48.662;13.300;2023-12-29T09:18:19;97535.41;;;7.96;100.00
49947;BME280;35839;48.662;13.300;2023-12-29T09:20:45;97537.41;;;7.83;100.00
49947;BME280;35839;48.662;13.300;2023-12-29T09:23:10;97536.47;;;7.84;100.00
49947;BME280;35839;48.662;13.300;2023-12-29T09:25:35;97536.06;;;7.89;100.00
49947;BME280;35839;48.662;13.300;2023-12-29T09:28:01;97534.88;;;7.93;100.00
49947;BME280;35839;48.662;13.300;2023-12-29T09:30:26;97537.53;;;8.02;100.00
49947;BME280;35839;48.662;13.300;2023-12-29T09:32:52;97536.38;;;8.26;100.00
49947;BME280;35839;48.662;13.300;2023-12-29T09:35:17;97533.78;;;8.26;100.00
49947;BME280;35839;48.662;13.300;2023-12-29T09:37:43;97527.59;;;8.27;100.00
49947;BME280;35839;48.662;13.300;2023-12-29T09:40:10;97535.53;;;8.47;100.00
49947;BME280;35839;48.662;13.300;2023-12-29T09:42:37;97531.25;;;8.46;100.00
49947;BME280;35839;48.662;13.300;2023-12-29T09:45:06;97536.88;;;8.41;100.00
49947;BME280;35839;48.662;13.300;2023-12-29T09:47:34;97532.53;;;8.51;100.00
49947;BME280;35839;48.662;13.300;2023-12-29T09:50:02;97528.00;;;8.53;100.00
49947;BME280;35839;48.662;13.300;2023-12-29T09:52:29;97512.78;;;8.68;100.00
49947;BME280;35839;48.662;13.300;2023-12-29T09:54:54;97503.44;;;8.75;100.00
49947;BME280;35839;48.662;13.300;2023-12-29T09:57:20;97505.75;;;8.78;100.00
49947;BME280;35839;48.662;13.300;2023-12-29T09:59:48;97503.72;;;9.01;100.00
49947;BME280;35839;48.662;13.300;2023-12-29T10:02:16;97501.94;;;9.02;100.00
49947;BME280;35839;48.662;13.300;2023-12-29T10:04:42;97496.84;;;9.20;100.00
49947;BME280;35839;48.662;13.300;2023-12-29T10:07:10;97492.44;;;9.20;100.00
49947;BME280;35839;48.662;13.300;2023-12-29T10:09:39;97497.53;;;9.22;100.00
49947;BME280;35839;48.662;13.300;2023-12-29T10:12:09;97496.81;;;9.39;100.00
49947;BME280;35839;48.662;13.300;2023-12-29T10:14:48;97490.66;;;9.31;100.00
49947;BME280;35839;48.662;13.300;2023-12-29T10:20:18;97472.94;;;9.05;100.00
49947;BME280;35839;48.662;13.300;2023-12-29T10:25:33;97477.00;;;9.37;100.00
49947;BME280;35839;48.662;13.300;2023-12-29T10:27:59;97478.94;;;9.44;100.00
49947;BME280;35839;48.662;13.300;2023-12-29T10:30:25;97471.63;;;9.48;100.00
49947;BME280;35839;48.662;13.300;2023-12-29T10:32:52;97464.63;;;9.48;100.00
49947;BME280;35839;48.662;13.300;2023-12-29T10:35:17;97468.97;;;10.42;100.00
49947;BME280;35839;48.662;13.300;2023-12-29T10:37:43;97477.38;;;11.00;100.00
49947;BME280;35839;48.662;13.300;2023-12-29T10:40:08;97477.84;;;11.13;100.00
49947;BME280;35839;48.662;13.300;2023-12-29T10:42:34;97470.19;;;10.84;100.00
49947;BME280;35839;48.662;13.300;2023-12-29T10:45:09;97465.84;;;10.57;100.00
49947;BME280;35839;48.662;13.300;2023-12-29T10:47:43;97463.81;;;10.50;100.00
49947;BME280;35839;48.662;13.300;2023-12-29T10:50:09;97464.19;;;10.38;100.00
49947;BME280;35839;48.662;13.300;2023-12-29T10:52:34;97454.69;;;10.27;100.00
49947;BME280;35839;48.662;13.300;2023-12-29T10:55:20;97461.69;;;10.36;100.00
49947;BME280;35839;48.662;13.300;2023-12-29T10:58:00;97449.34;;;10.46;100.00
49947;BME280;35839;48.662;13.300;2023-12-29T11:00:29;97455.66;;;10.53;100.00
49947;BME280;35839;48.662;13.300;2023-12-29T11:02:54;97455.66;;;10.53;100.00
49947;BME280;35839;48.662;13.300;2023-12-29T11:05:24;97441.22;;;10.67;100.00
49947;BME280;35839;48.662;13.300;2023-12-29T11:07:50;97439.81;;;10.73;100.00
49947;BME280;35839;48.662;13.300;2023-12-29T11:10:19;97433.97;;;10.61;100.00
49947;BME280;35839;48.662;13.300;2023-12-29T11:12:47;97422.13;;;10.39;100.00
49947;BME280;35839;48.662;13.300;2023-12-29T11:15:13;97425.91;;;10.54;100.00
49947;BME280;35839;48.662;13.300;2023-12-29T11:17:41;97429.19;;;10.74;100.00
49947;BME280;35839;48.662;13.300;2023-12-29T11:20:13;97412.28;;;10.69;100.00
49947;BME280;35839;48.662;13.300;2023-12-29T11:22:40;97412.66;;;10.92;100.00
49947;BME280;35839;48.662;13.300;2023-12-29T11:25:05;97414.94;;;11.13;100.00
49947;BME280;35839;48.662;13.300;2023-12-29T11:27:33;97424.50;;;11.22;100.00
49947;BME280;35839;48.662;13.300;2023-12-29T11:30:00;97413.09;;;11.31;100.00
49947;BME280;35839;48.662;13.300;2023-12-29T11:35:43;97408.56;;;11.42;100.00
49947;BME280;35839;48.662;13.300;2023-12-29T11:38:31;97399.41;;;11.46;100.00
49947;BME280;35839;48.662;13.300;2023-12-29T11:41:19;97395.31;;;11.43;100.00
49947;BME280;35839;48.662;13.300;2023-12-29T11:43:55;97394.50;;;11.43;100.00
49947;BME280;35839;48.662;13.300;2023-12-29T11:46:36;97385.22;;;11.30;100.00
49947;BME280;35839;48.662;13.300;2023-12-29T11:49:02;97383.69;;;11.46;100.00
49947;BME280;35839;48.662;13.300;2023-12-29T11:51:32;97383.53;;;11.47;100.00
49947;BME280;35839;48.662;13.300;2023-12-29T11:53:58;97383.69;;;11.46;100.00
49947;BME280;35839;48.662;13.300;2023-12-29T11:56:30;97372.00;;;11.66;100.00
49947;BME280;35839;48.662;13.300;2023-12-29T11:58:55;97373.91;;;11.56;100.00
49947;BME280;35839;48.662;13.300;2023-12-29T12:01:33;97378.41;;;11.37;100.00
49947;BME280;35839;48.662;13.300;2023-12-29T12:04:01;97374.59;;;11.32;100.00
49947;BME280;35839;48.662;13.300;2023-12-29T12:06:39;97369.91;;;11.44;100.00
49947;BME280;35839;48.662;13.300;2023-12-29T12:09:37;97366.84;;;11.22;100.00
49947;BME280;35839;48.662;13.300;2023-12-29T12:12:03;97367.44;;;10.72;100.00
49947;BME280;35839;48.662;13.300;2023-12-29T12:14:51;97359.81;;;10.79;100.00
49947;BME280;35839;48.662;13.300;2023-12-29T12:17:33;97358.41;;;10.84;100.00
49947;BME280;35839;48.662;13.300;2023-12-29T12:20:08;97356.03;;;11.25;100.00
49947;BME280;35839;48.662;13.300;2023-12-29T12:22:35;97349.97;;;10.99;100.00
49947;BME280;35839;48.662;13.300;2023-12-29T12:25:02;97356.97;;;10.90;100.00
49947;BME280;35839;48.662;13.300;2023-12-29T12:27:28;97356.25;;;11.06;100.00
49947;BME280;35839;48.662;13.300;2023-12-29T12:29:55;97358.06;;;11.31;100.00
49947;BME280;35839;48.662;13.300;2023-12-29T12:32:22;97353.91;;;11.55;100.00
49947;BME280;35839;48.662;13.300;2023-12-29T12:34:48;97344.97;;;11.66;100.00
49947;BME280;35839;48.662;13.300;2023-12-29T12:37:19;97343.69;;;11.44;100.00
49947;BME280;35839;48.662;13.300;2023-12-29T12:39:45;97341.03;;;11.35;100.00
49947;BME280;35839;48.662;13.300;2023-12-29T12:42:10;97343.38;;;11.47;100.00
49947;BME280;35839;48.662;13.300;2023-12-29T12:44:40;97341.47;;;11.57;100.00
49947;BME280;35839;48.662;13.300;2023-12-29T12:47:08;97341.28;;;11.93;100.00
49947;BME280;35839;48.662;13.300;2023-12-29T12:49:35;97329.66;;;11.87;100.00
49947;BME280;35839;48.662;13.300;2023-12-29T12:52:00;97333.47;;;11.67;100.00
49947;BME280;35839;48.662;13.300;2023-12-29T12:54:27;97333.28;;;11.60;100.00
49947;BME280;35839;48.662;13.300;2023-12-29T12:56:52;97331.00;;;11.65;100.00
49947;BME280;35839;48.662;13.300;2023-12-29T12:59:18;97343.34;;;11.38;100.00
49947;BME280;35839;48.662;13.300;2023-12-29T13:01:43;97350.22;;;11.39;100.00
49947;BME280;35839;48.662;13.300;2023-12-29T13:04:10;97347.03;;;11.54;100.00
49947;BME280;35839;48.662;13.300;2023-12-29T13:06:39;97346.72;;;11.57;100.00
49947;BME280;35839;48.662;13.300;2023-12-29T13:09:06;97347.38;;;11.59;100.00
49947;BME280;35839;48.662;13.300;2023-12-29T13:11:36;97344.56;;;11.52;100.00
49947;BME280;35839;48.662;13.300;2023-12-29T13:14:02;97343.56;;;11.53;100.00
49947;BME280;35839;48.662;13.300;2023-12-29T13:16:37;97339.09;;;11.80;100.00
49947;BME280;35839;48.662;13.300;2023-12-29T13:19:23;97340.50;;;12.00;100.00
49947;BME280;35839;48.662;13.300;2023-12-29T13:21:53;97334.13;;;12.11;100.00
49947;BME280;35839;48.662;13.300;2023-12-29T13:24:21;97332.69;;;12.17;100.00
49947;BME280;35839;48.662;13.300;2023-12-29T13:26:47;97322.38;;;12.48;100.00
49947;BME280;35839;48.662;13.300;2023-12-29T13:29:22;97324.66;;;12.43;100.00
49947;BME280;35839;48.662;13.300;2023-12-29T13:31:52;97315.44;;;12.22;100.00
49947;BME280;35839;48.662;13.300;2023-12-29T13:34:33;97322.31;;;12.07;100.00
49947;BME280;35839;48.662;13.300;2023-12-29T13:37:18;97324.78;;;12.00;100.00
49947;BME280;35839;48.662;13.300;2023-12-29T13:40:00;97314.31;;;11.74;100.00
49947;BME280;35839;48.662;13.300;2023-12-29T13:42:28;97319.09;;;11.79;100.00
49947;BME280;35839;48.662;13.300;2023-12-29T13:44:56;97316.72;;;11.94;100.00
49947;BME280;35839;48.662;13.300;2023-12-29T13:47:24;97318.66;;;11.92;100.00
49947;BME280;35839;48.662;13.300;2023-12-29T13:49:50;97315.00;;;11.85;100.00
49947;BME280;35839;48.662;13.300;2023-12-29T13:52:15;97325.09;;;12.14;100.00
49947;BME280;35839;48.662;13.300;2023-12-29T13:54:43;97325.50;;;11.85;100.00
49947;BME280;35839;48.662;13.300;2023-12-29T13:57:08;97320.00;;;11.96;100.00
49947;BME280;35839;48.662;13.300;2023-12-29T13:59:34;97321.22;;;12.34;100.00
49947;BME280;35839;48.662;13.300;2023-12-29T14:02:03;97320.38;;;12.34;100.00
49947;BME280;35839;48.662;13.300;2023-12-29T14:04:40;97323.78;;;12.10;100.00
49947;BME280;35839;48.662;13.300;2023-12-29T14:07:07;97323.00;;;12.42;100.00
49947;BME280;35839;48.662;13.300;2023-12-29T14:09:34;97318.25;;;12.37;100.00
49947;BME280;35839;48.662;13.300;2023-12-29T14:12:00;97312.19;;;12.29;100.00
49947;BME280;35839;48.662;13.300;2023-12-29T14:14:25;97314.78;;;12.20;100.00
49947;BME280;35839;48.662;13.300;2023-12-29T14:16:52;97330.88;;;12.26;100.00
49947;BME280;35839;48.662;13.300;2023-12-29T14:19:17;97330.69;;;12.11;100.00
49947;BME280;35839;48.662;13.300;2023-12-29T14:21:42;97326.22;;;11.95;100.00
49947;BME280;35839;48.662;13.300;2023-12-29T14:24:15;97329.44;;;11.80;100.00
49947;BME280;35839;48.662;13.300;2023-12-29T14:29:22;97329.16;;;11.92;100.00
49947;BME280;35839;48.662;13.300;2023-12-29T14:31:48;97334.13;;;12.03;100.00
49947;BME280;35839;48.662;13.300;2023-12-29T14:34:13;97328.81;;;11.87;100.00
49947;BME280;35839;48.662;13.300;2023-12-29T14:36:42;97339.72;;;12.08;100.00
49947;BME280;35839;48.662;13.300;2023-12-29T14:39:08;97336.38;;;11.90;100.00
49947;BME280;35839;48.662;13.300;2023-12-29T14:41:38;97335.91;;;11.94;100.00
49947;BME280;35839;48.662;13.300;2023-12-29T14:44:04;97337.75;;;12.18;100.00
49947;BME280;35839;48.662;13.300;2023-12-29T14:46:29;97342.84;;;12.20;100.00
49947;BME280;35839;48.662;13.300;2023-12-29T14:48:56;97343.19;;;12.17;100.00
49947;BME280;35839;48.662;13.300;2023-12-29T14:51:22;97349.09;;;11.42;100.00
49947;BME280;35839;48.662;13.300;2023-12-29T14:53:49;97347.22;;;11.26;100.00
49947;BME280;35839;48.662;13.300;2023-12-29T14:56:16;97343.00;;;11.33;100.00
49947;BME280;35839;48.662;13.300;2023-12-29T14:58:41;97347.44;;;11.75;100.00
49947;BME280;35839;48.662;13.300;2023-12-29T15:01:08;97340.34;;;11.94;100.00
49947;BME280;35839;48.662;13.300;2023-12-29T15:03:34;97342.16;;;12.01;100.00
49947;BME280;35839;48.662;13.300;2023-12-29T15:05:59;97348.13;;;11.86;100.00
49947;BME280;35839;48.662;13.300;2023-12-29T15:08:25;97343.56;;;11.88;100.00
49947;BME280;35839;48.662;13.300;2023-12-29T15:10:50;97344.63;;;12.03;100.00
49947;BME280;35839;48.662;13.300;2023-12-29T15:13:16;97343.91;;;11.93;100.00
49947;BME280;35839;48.662;13.300;2023-12-29T15:15:42;97341.63;;;11.90;100.00
49947;BME280;35839;48.662;13.300;2023-12-29T15:18:07;97337.97;;;11.82;100.00
49947;BME280;35839;48.662;13.300;2023-12-29T15:20:33;97339.38;;;11.69;100.00
49947;BME280;35839;48.662;13.300;2023-12-29T15:22:58;97347.44;;;11.41;100.00
49947;BME280;35839;48.662;13.300;2023-12-29T15:25:26;97352.91;;;11.48;100.00
49947;BME280;35839;48.662;13.300;2023-12-29T15:27:52;97347.31;;;11.51;100.00
49947;BME280;35839;48.662;13.300;2023-12-29T15:30:18;97338.53;;;11.60;100.00
49947;BME280;35839;48.662;13.300;2023-12-29T15:32:43;97341.38;;;11.41;100.00
49947;BME280;35839;48.662;13.300;2023-12-29T15:35:09;97341.13;;;11.60;100.00
49947;BME280;35839;48.662;13.300;2023-12-29T15:37:34;97342.34;;;11.39;100.00
49947;BME280;35839;48.662;13.300;2023-12-29T15:40:00;97348.34;;;11.58;100.00
49947;BME280;35839;48.662;13.300;2023-12-29T15:42:26;97345.63;;;11.33;100.00
49947;BME280;35839;48.662;13.300;2023-12-29T15:44:53;97347.78;;;11.38;100.00
49947;BME280;35839;48.662;13.300;2023-12-29T15:47:18;97349.94;;;11.51;100.00
49947;BME280;35839;48.662;13.300;2023-12-29T15:49:43;97345.25;;;11.28;100.00
49947;BME280;35839;48.662;13.300;2023-12-29T15:52:09;97344.41;;;11.54;100.00
49947;BME280;35839;48.662;13.300;2023-12-29T15:54:34;97340.44;;;11.50;100.00
49947;BME280;35839;48.662;13.300;2023-12-29T15:56:59;97340.09;;;11.45;100.00
49947;BME280;35839;48.662;13.300;2023-12-29T15:59:25;97342.88;;;11.43;100.00
49947;BME280;35839;48.662;13.300;2023-12-29T16:01:51;97348.84;;;11.27;100.00
49947;BME280;35839;48.662;13.300;2023-12-29T16:04:16;97350.75;;;11.51;100.00
49947;BME280;35839;48.662;13.300;2023-12-29T16:06:41;97340.81;;;11.63;100.00
49947;BME280;35839;48.662;13.300;2023-12-29T16:09:07;97341.75;;;11.46;100.00
49947;BME280;35839;48.662;13.300;2023-12-29T16:11:32;97344.94;;;11.31;100.00
49947;BME280;35839;48.662;13.300;2023-12-29T16:13:59;97344.78;;;11.67;100.00
49947;BME280;35839;48.662;13.300;2023-12-29T16:16:25;97348.34;;;11.58;100.00
49947;BME280;35839;48.662;13.300;2023-12-29T16:18:58;97343.88;;;11.50;100.00
49947;BME280;35839;48.662;13.300;2023-12-29T16:21:25;97340.41;;;11.42;100.00
49947;BME280;35839;48.662;13.300;2023-12-29T16:23:51;97347.25;;;11.34;100.00
49947;BME280;35839;48.662;13.300;2023-12-29T16:26:16;97338.97;;;11.21;100.00
49947;BME280;35839;48.662;13.300;2023-12-29T16:28:42;97338.88;;;11.31;100.00
49947;BME280;35839;48.662;13.300;2023-12-29T16:31:08;97339.69;;;11.31;100.00
49947;BME280;35839;48.662;13.300;2023-12-29T16:33:37;97344.59;;;11.26;100.00
49947;BME280;35839;48.662;13.300;2023-12-29T16:36:09;97347.22;;;11.26;100.00
49947;BME280;35839;48.662;13.300;2023-12-29T16:38:36;97348.28;;;11.15;100.00
49947;BME280;35839;48.662;13.300;2023-12-29T16:41:01;97349.47;;;11.21;100.00
49947;BME280;35839;48.662;13.300;2023-12-29T16:43:27;97343.81;;;11.34;100.00
49947;BME280;35839;48.662;13.300;2023-12-29T16:45:52;97346.22;;;11.27;100.00
49947;BME280;35839;48.662;13.300;2023-12-29T16:48:17;97343.75;;;11.00;100.00
49947;BME280;35839;48.662;13.300;2023-12-29T16:50:43;97334.94;;;11.01;100.00
49947;BME280;35839;48.662;13.300;2023-12-29T16:53:08;97336.63;;;11.10;100.00
49947;BME280;35839;48.662;13.300;2023-12-29T16:55:33;97331.00;;;11.05;100.00
49947;BME280;35839;48.662;13.300;2023-12-29T16:57:59;97337.31;;;11.12;100.00
49947;BME280;35839;48.662;13.300;2023-12-29T17:00:24;97335.19;;;11.15;100.00
49947;BME280;35839;48.662;13.300;2023-12-29T17:02:50;97327.47;;;11.14;100.00
49947;BME280;35839;48.662;13.300;2023-12-29T17:05:15;97337.56;;;11.01;100.00
49947;BME280;35839;48.662;13.300;2023-12-29T17:07:40;97329.63;;;10.92;100.00
49947;BME280;35839;48.662;13.300;2023-12-29T17:10:06;97332.78;;;10.96;100.00
49947;BME280;35839;48.662;13.300;2023-12-29T17:12:34;97330.66;;;11.00;100.00
49947;BME280;35839;48.662;13.300;2023-12-29T17:15:00;97331.00;;;11.05;100.00
49947;BME280;35839;48.662;13.300;2023-12-29T17:17:25;97331.75;;;11.15;100.00
49947;BME280;35839;48.662;13.300;2023-12-29T17:19:51;97332.00;;;11.04;100.00
49947;BME280;35839;48.662;13.300;2023-12-29T17:22:16;97340.09;;;10.92;100.00
49947;BME280;35839;48.662;13.300;2023-12-29T17:24:43;97330.53;;;10.83;100.00
49947;BME280;35839;48.662;13.300;2023-12-29T17:27:08;97334.19;;;10.90;100.00
49947;BME280;35839;48.662;13.300;2023-12-29T17:29:34;97334.44;;;10.79;100.00
49947;BME280;35839;48.662;13.300;2023-12-29T17:31:59;97336.31;;;10.87;100.00
49947;BME280;35839;48.662;13.300;2023-12-29T17:34:24;97337.81;;;10.71;100.00
49947;BME280;35839;48.662;13.300;2023-12-29T17:36:50;97334.16;;;10.82;100.00
49947;BME280;35839;48.662;13.300;2023-12-29T17:39:15;97335.22;;;10.71;100.00
49947;BME280;35839;48.662;13.300;2023-12-29T17:41:40;97326.84;;;10.68;100.00
49947;BME280;35839;48.662;13.300;2023-12-29T17:44:06;97337.31;;;10.68;100.00
49947;BME280;35839;48.662;13.300;2023-12-29T17:46:31;97340.63;;;10.70;100.00
49947;BME280;35839;48.662;13.300;2023-12-29T17:48:56;97327.91;;;10.57;100.00
49947;BME280;35839;48.662;13.300;2023-12-29T17:51:22;97339.84;;;10.60;100.00
49947;BME280;35839;48.662;13.300;2023-12-29T17:53:53;97337.75;;;10.27;100.00
49947;BME280;35839;48.662;13.300;2023-12-29T17:56:19;97336.81;;;10.28;100.00
49947;BME280;35839;48.662;13.300;2023-12-29T17:58:44;97331.50;;;10.38;100.00
49947;BME280;35839;48.662;13.300;2023-12-29T18:01:12;97334.28;;;10.09;100.00
49947;BME280;35839;48.662;13.300;2023-12-29T18:03:38;97339.22;;;9.94;100.00
49947;BME280;35839;48.662;13.300;2023-12-29T18:06:03;97325.44;;;10.38;100.00
49947;BME280;35839;48.662;13.300;2023-12-29T18:08:30;97330.81;;;10.36;100.00
49947;BME280;35839;48.662;13.300;2023-12-29T18:10:56;97322.25;;;10.16;100.00
49947;BME280;35839;48.662;13.300;2023-12-29T18:13:21;97332.72;;;10.16;100.00
49947;BME280;35839;48.662;13.300;2023-12-29T18:15:47;97331.25;;;9.86;100.00
49947;BME280;35839;48.662;13.300;2023-12-29T18:18:14;97325.75;;;9.89;100.00
49947;BME280;35839;48.662;13.300;2023-12-29T18:20:41;97328.38;;;10.07;100.00
49947;BME280;35839;48.662;13.300;2023-12-29T18:23:06;97331.75;;;9.71;100.00
49947;BME280;35839;48.662;13.300;2023-12-29T18:25:32;97330.50;;;9.48;100.00
49947;BME280;35839;48.662;13.300;2023-12-29T18:27:59;97325.44;;;9.37;100.00
49947;BME280;35839;48.662;13.300;2023-12-29T18:30:24;97334.22;;;9.45;100.00
49947;BME280;35839;48.662;13.300;2023-12-29T18:32:50;97327.81;;;9.67;100.00
49947;BME280;35839;48.662;13.300;2023-12-29T18:35:15;97328.00;;;9.84;100.00
49947;BME280;35839;48.662;13.300;2023-12-29T18:37:43;97320.91;;;9.66;100.00
49947;BME280;35839;48.662;13.300;2023-12-29T18:40:09;97325.81;;;9.79;100.00
49947;BME280;35839;48.662;13.300;2023-12-29T18:42:34;97323.09;;;9.71;100.00
49947;BME280;35839;48.662;13.300;2023-12-29T18:45:00;97324.97;;;9.79;100.00
49947;BME280;35839;48.662;13.300;2023-12-29T18:47:25;97331.38;;;9.66;100.00
49947;BME280;35839;48.662;13.300;2023-12-29T18:49:50;97331.44;;;9.57;100.00
49947;BME280;35839;48.662;13.300;2023-12-29T18:52:16;97321.78;;;9.57;100.00
49947;BME280;35839;48.662;13.300;2023-12-29T18:54:41;97324.97;;;9.79;100.00
49947;BME280;35839;48.662;13.300;2023-12-29T18:57:06;97321.28;;;10.17;100.00
49947;BME280;35839;48.662;13.300;2023-12-29T18:59:32;97324.16;;;10.24;100.00
49947;BME280;35839;48.662;13.300;2023-12-29T19:01:57;97336.00;;;10.18;100.00
49947;BME280;35839;48.662;13.300;2023-12-29T19:04:22;97334.38;;;10.17;100.00
49947;BME280;35839;48.662;13.300;2023-12-29T19:06:48;97331.81;;;10.25;100.00
49947;BME280;35839;48.662;13.300;2023-12-29T19:09:13;97323.00;;;10.08;100.00
49947;BME280;35839;48.662;13.300;2023-12-29T19:11:39;97317.09;;;10.06;100.00
49947;BME280;35839;48.662;13.300;2023-12-29T19:14:05;97334.34;;;9.99;100.00
49947;BME280;35839;48.662;13.300;2023-12-29T19:16:31;97330.69;;;9.92;100.00
49947;BME280;35839;48.662;13.300;2023-12-29T19:18:57;97330.09;;;9.98;100.00
49947;BME280;35839;48.662;13.300;2023-12-29T19:21:22;97338.47;;;10.02;100.00
49947;BME280;35839;48.662;13.300;2023-12-29T19:23:49;97327.75;;;9.95;100.00
49947;BME280;35839;48.662;13.300;2023-12-29T19:26:18;97325.75;;;9.89;100.00
49947;BME280;35839;48.662;13.300;2023-12-29T19:28:44;97325.44;;;9.92;100.00
49947;BME280;35839;48.662;13.300;2023-12-29T19:31:09;97330.47;;;10.03;100.00